sensor_id;sensor_type;location;lat;lon;timestamp;temperature;humidity
3566;DHT22;1797;51.844;7.684;2023-05-10T00:01:06;14.70;99.90
3566;DHT22;1797;51.844;7.684;2023-05-10T00:03:31;14.70;99.90
3566;DHT22;1797;51.844;7.684;2023-05-10T00:05:57;14.70;99.90
3566;DHT22;1797;51.844;7.684;2023-05-10T00:08:22;14.70;99.90
3566;DHT22;1797;51.844;7.684;2023-05-10T00:10:48;14.70;99.90
3566;DHT22;1797;51.844;7.684;2023-05-10T00:13:14;14.60;99.90
3566;DHT22;1797;51.844;7.684;2023-05-10T00:15:40;14.70;99.90
3566;DHT22;1797;51.844;7.684;2023-05-10T00:18:06;14.60;99.90
3566;DHT22;1797;51.844;7.684;2023-05-10T00:20:31;14.60;99.90
3566;DHT22;1797;51.844;7.684;2023-05-10T00:22:57;14.60;99.90
3566;DHT22;1797;51.844;7.684;2023-05-10T00:25:23;14.50;99.90
3566;DHT22;1797;51.844;7.684;2023-05-10T00:27:48;14.50;99.90
3566;DHT22;1797;51.844;7.684;2023-05-10T00:30:14;14.50;99.90
3566;DHT22;1797;51.844;7.684;2023-05-10T00:32:40;14.50;99.90
3566;DHT22;1797;51.844;7.684;2023-05-10T00:35:06;14.50;99.90
3566;DHT22;1797;51.844;7.684;2023-05-10T00:37:32;14.50;99.90
3566;DHT22;1797;51.844;7.684;2023-05-10T00:39:57;14.50;99.90
3566;DHT22;1797;51.844;7.684;2023-05-10T00:42:23;14.30;99.90
3566;DHT22;1797;51.844;7.684;2023-05-10T00:44:48;14.20;99.90
3566;DHT22;1797;51.844;7.684;2023-05-10T00:47:14;14.20;99.90
3566;DHT22;1797;51.844;7.684;2023-05-10T00:49:41;14.20;99.90
3566;DHT22;1797;51.844;7.684;2023-05-10T00:52:07;14.10;99.90
3566;DHT22;1797;51.844;7.684;2023-05-10T00:54:33;14.20;99.90
3566;DHT22;1797;51.844;7.684;2023-05-10T00:56:59;14.10;99.90
3566;DHT22;1797;51.844;7.684;2023-05-10T00:59:24;14.00;99.90
3566;DHT22;1797;51.844;7.684;2023-05-10T01:01:50;13.90;99.90
3566;DHT22;1797;51.844;7.684;2023-05-10T01:04:17;13.90;99.90
3566;DHT22;1797;51.844;7.684;2023-05-10T01:06:43;14.00;99.90
3566;DHT22;1797;51.844;7.684;2023-05-10T01:09:09;13.90;99.90
3566;DHT22;1797;51.844;7.684;2023-05-10T01:11:37;14.00;99.90
3566;DHT22;1797;51.844;7.684;2023-05-10T01:14:03;13.90;99.90
3566;DHT22;1797;51.844;7.684;2023-05-10T01:16:36;13.90;99.90
3566;DHT22;1797;51.844;7.684;2023-05-10T01:19:10;14.00;99.90
3566;DHT22;1797;51.844;7.684;2023-05-10T01:22:02;13.90;99.90
3566;DHT22;1797;51.844;7.684;2023-05-10T01:24:56;14.00;99.90
3566;DHT22;1797;51.844;7.684;2023-05-10T01:27:47;14.00;99.90
3566;DHT22;1797;51.844;7.684;2023-05-10T01:35:43;14.00;99.90
3566;DHT22;1797;51.844;7.684;2023-05-10T01:41:23;13.80;99.90
3566;DHT22;1797;51.844;7.684;2023-05-10T01:44:00;13.70;99.90
3566;DHT22;1797;51.844;7.684;2023-05-10T01:46:37;13.80;99.90
3566;DHT22;1797;51.844;7.684;2023-05-10T01:49:08;13.80;99.90
3566;DHT22;1797;51.844;7.684;2023-05-10T01:51:45;13.80;99.90
3566;DHT22;1797;51.844;7.684;2023-05-10T01:54:13;13.70;99.90
3566;DHT22;1797;51.844;7.684;2023-05-10T01:56:40;13.60;99.90
3566;DHT22;1797;51.844;7.684;2023-05-10T01:59:12;13.60;99.90
3566;DHT22;1797;51.844;7.684;2023-05-10T02:01:40;13.70;99.90
3566;DHT22;1797;51.844;7.684;2023-05-10T02:04:08;13.70;99.90
3566;DHT22;1797;51.844;7.684;2023-05-10T02:06:35;13.60;99.90
3566;DHT22;1797;51.844;7.684;2023-05-10T02:09:03;13.60;99.90
3566;DHT22;1797;51.844;7.684;2023-05-10T02:11:30;13.50;99.90
3566;DHT22;1797;51.844;7.684;2023-05-10T02:13:57;13.40;99.90
3566;DHT22;1797;51.844;7.684;2023-05-10T02:16:24;13.20;99.90
3566;DHT22;1797;51.844;7.684;2023-05-10T02:18:52;13.30;99.90
3566;DHT22;1797;51.844;7.684;2023-05-10T02:21:20;13.10;99.90
3566;DHT22;1797;51.844;7.684;2023-05-10T02:23:46;13.10;99.90
3566;DHT22;1797;51.844;7.684;2023-05-10T02:26:14;13.10;99.90
3566;DHT22;1797;51.844;7.684;2023-05-10T02:28:42;13.10;99.90
3566;DHT22;1797;51.844;7.684;2023-05-10T02:31:09;13.00;99.90
3566;DHT22;1797;51.844;7.684;2023-05-10T02:33:38;13.00;99.90
3566;DHT22;1797;51.844;7.684;2023-05-10T02:36:07;13.00;99.90
3566;DHT22;1797;51.844;7.684;2023-05-10T02:38:34;13.00;99.90
3566;DHT22;1797;51.844;7.684;2023-05-10T02:41:02;12.90;99.90
3566;DHT22;1797;51.844;7.684;2023-05-10T02:43:32;12.90;99.90
3566;DHT22;1797;51.844;7.684;2023-05-10T02:45:58;12.90;99.90
3566;DHT22;1797;51.844;7.684;2023-05-10T02:48:24;12.90;99.90
3566;DHT22;1797;51.844;7.684;2023-05-10T02:50:51;12.90;99.90
3566;DHT22;1797;51.844;7.684;2023-05-10T02:53:33;12.90;99.90
3566;DHT22;1797;51.844;7.684;2023-05-10T02:56:04;12.80;99.90
3566;DHT22;1797;51.844;7.684;2023-05-10T02:58:32;12.80;99.90
3566;DHT22;1797;51.844;7.684;2023-05-10T03:00:58;12.80;99.90
3566;DHT22;1797;51.844;7.684;2023-05-10T03:03:24;12.90;99.90
3566;DHT22;1797;51.844;7.684;2023-05-10T03:05:50;12.80;99.90
3566;DHT22;1797;51.844;7.684;2023-05-10T03:08:16;12.80;99.90
3566;DHT22;1797;51.844;7.684;2023-05-10T03:10:50;12.80;99.90
3566;DHT22;1797;51.844;7.684;2023-05-10T03:13:32;12.80;99.90
3566;DHT22;1797;51.844;7.684;2023-05-10T03:16:16;12.90;99.90
3566;DHT22;1797;51.844;7.684;2023-05-10T03:18:54;12.80;99.90
3566;DHT22;1797;51.844;7.684;2023-05-10T03:21:22;12.80;99.90
3566;DHT22;1797;51.844;7.684;2023-05-10T03:23:58;12.80;99.90
3566;DHT22;1797;51.844;7.684;2023-05-10T03:26:26;12.70;99.90
3566;DHT22;1797;51.844;7.684;2023-05-10T03:28:52;12.80;99.90
3566;DHT22;1797;51.844;7.684;2023-05-10T03:31:18;12.70;99.90
3566;DHT22;1797;51.844;7.684;2023-05-10T03:33:48;12.80;99.90
3566;DHT22;1797;51.844;7.684;2023-05-10T03:36:13;12.80;99.90
3566;DHT22;1797;51.844;7.684;2023-05-10T03:38:39;12.70;99.90
3566;DHT22;1797;51.844;7.684;2023-05-10T03:41:05;12.80;99.90
3566;DHT22;1797;51.844;7.684;2023-05-10T03:43:30;12.70;99.90
3566;DHT22;1797;51.844;7.684;2023-05-10T03:45:56;12.70;99.90
3566;DHT22;1797;51.844;7.684;2023-05-10T03:48:21;12.70;99.90
3566;DHT22;1797;51.844;7.684;2023-05-10T03:50:47;12.70;99.90
3566;DHT22;1797;51.844;7.684;2023-05-10T03:53:14;12.70;99.90
3566;DHT22;1797;51.844;7.684;2023-05-10T03:55:40;12.60;99.90
3566;DHT22;1797;51.844;7.684;2023-05-10T03:58:06;12.60;99.90
3566;DHT22;1797;51.844;7.684;2023-05-10T04:00:31;12.70;99.90
3566;DHT22;1797;51.844;7.684;2023-05-10T04:02:57;12.70;99.90
3566;DHT22;1797;51.844;7.684;2023-05-10T04:05:23;12.60;99.90
3566;DHT22;1797;51.844;7.684;2023-05-10T04:07:49;12.60;99.90
3566;DHT22;1797;51.844;7.684;2023-05-10T04:10:15;12.60;99.90
3566;DHT22;1797;51.844;7.684;2023-05-10T04:12:41;12.70;99.90
3566;DHT22;1797;51.844;7.684;2023-05-10T04:15:07;12.70;99.90
3566;DHT22;1797;51.844;7.684;2023-05-10T04:17:33;12.70;99.90
3566;DHT22;1797;51.844;7.684;2023-05-10T04:19:59;12.60;99.90
3566;DHT22;1797;51.844;7.684;2023-05-10T04:22:24;12.60;99.90
3566;DHT22;1797;51.844;7.684;2023-05-10T04:24:50;12.60;99.90
3566;DHT22;1797;51.844;7.684;2023-05-10T04:27:15;12.70;99.90
3566;DHT22;1797;51.844;7.684;2023-05-10T04:29:41;12.70;99.90
3566;DHT22;1797;51.844;7.684;2023-05-10T04:32:07;12.70;99.90
3566;DHT22;1797;51.844;7.684;2023-05-10T04:34:33;12.70;99.90
3566;DHT22;1797;51.844;7.684;2023-05-10T04:36:59;12.80;99.90
3566;DHT22;1797;51.844;7.684;2023-05-10T04:39:25;12.70;99.90
3566;DHT22;1797;51.844;7.684;2023-05-10T04:41:50;12.80;99.90
3566;DHT22;1797;51.844;7.684;2023-05-10T04:44:16;12.80;99.90
3566;DHT22;1797;51.844;7.684;2023-05-10T04:46:41;12.80;99.90
3566;DHT22;1797;51.844;7.684;2023-05-10T04:49:07;12.70;99.90
3566;DHT22;1797;51.844;7.684;2023-05-10T04:51:33;12.70;99.90
3566;DHT22;1797;51.844;7.684;2023-05-10T04:53:58;12.70;99.90
3566;DHT22;1797;51.844;7.684;2023-05-10T04:56:24;12.80;99.90
3566;DHT22;1797;51.844;7.684;2023-05-10T04:58:49;12.80;99.90
3566;DHT22;1797;51.844;7.684;2023-05-10T05:01:15;12.80;99.90
3566;DHT22;1797;51.844;7.684;2023-05-10T05:03:41;12.80;99.90
3566;DHT22;1797;51.844;7.684;2023-05-10T05:06:07;12.80;99.90
3566;DHT22;1797;51.844;7.684;2023-05-10T05:08:33;12.90;99.90
3566;DHT22;1797;51.844;7.684;2023-05-10T05:10:58;13.00;99.90
3566;DHT22;1797;51.844;7.684;2023-05-10T05:13:24;13.00;99.90
3566;DHT22;1797;51.844;7.684;2023-05-10T05:15:50;13.00;99.90
3566;DHT22;1797;51.844;7.684;2023-05-10T05:18:15;13.10;99.90
3566;DHT22;1797;51.844;7.684;2023-05-10T05:20:41;13.20;99.90
3566;DHT22;1797;51.844;7.684;2023-05-10T05:23:07;13.20;99.90
3566;DHT22;1797;51.844;7.684;2023-05-10T05:25:32;13.10;99.90
3566;DHT22;1797;51.844;7.684;2023-05-10T05:27:58;13.20;99.90
3566;DHT22;1797;51.844;7.684;2023-05-10T05:30:23;13.30;99.90
3566;DHT22;1797;51.844;7.684;2023-05-10T05:32:49;13.40;99.90
3566;DHT22;1797;51.844;7.684;2023-05-10T05:35:15;13.30;99.90
3566;DHT22;1797;51.844;7.684;2023-05-10T05:37:40;13.40;99.90
3566;DHT22;1797;51.844;7.684;2023-05-10T05:40:06;13.40;99.90
3566;DHT22;1797;51.844;7.684;2023-05-10T05:42:32;13.40;99.90
3566;DHT22;1797;51.844;7.684;2023-05-10T05:44:58;13.40;99.90
3566;DHT22;1797;51.844;7.684;2023-05-10T05:47:23;13.50;99.90
3566;DHT22;1797;51.844;7.684;2023-05-10T05:49:49;13.50;99.90
3566;DHT22;1797;51.844;7.684;2023-05-10T05:52:14;13.40;99.90
3566;DHT22;1797;51.844;7.684;2023-05-10T05:54:40;13.40;99.90
3566;DHT22;1797;51.844;7.684;2023-05-10T05:57:06;13.30;99.90
3566;DHT22;1797;51.844;7.684;2023-05-10T05:59:32;13.50;99.90
3566;DHT22;1797;51.844;7.684;2023-05-10T06:01:58;13.40;99.90
3566;DHT22;1797;51.844;7.684;2023-05-10T06:04:23;13.40;99.90
3566;DHT22;1797;51.844;7.684;2023-05-10T06:06:49;13.40;99.90
3566;DHT22;1797;51.844;7.684;2023-05-10T06:09:15;13.30;99.90
3566;DHT22;1797;51.844;7.684;2023-05-10T06:11:41;13.40;99.90
3566;DHT22;1797;51.844;7.684;2023-05-10T06:14:06;13.30;99.90
3566;DHT22;1797;51.844;7.684;2023-05-10T06:16:34;13.50;99.90
3566;DHT22;1797;51.844;7.684;2023-05-10T06:18:59;13.50;99.90
3566;DHT22;1797;51.844;7.684;2023-05-10T06:21:25;13.50;99.90
3566;DHT22;1797;51.844;7.684;2023-05-10T06:23:51;13.50;99.90
3566;DHT22;1797;51.844;7.684;2023-05-10T06:26:16;13.30;99.90
3566;DHT22;1797;51.844;7.684;2023-05-10T06:28:42;13.30;99.90
3566;DHT22;1797;51.844;7.684;2023-05-10T06:31:08;13.20;99.90
3566;DHT22;1797;51.844;7.684;2023-05-10T06:33:34;13.30;99.90
3566;DHT22;1797;51.844;7.684;2023-05-10T06:35:59;13.30;99.90
3566;DHT22;1797;51.844;7.684;2023-05-10T06:38:25;13.50;99.90
3566;DHT22;1797;51.844;7.684;2023-05-10T06:40:51;13.50;99.90
3566;DHT22;1797;51.844;7.684;2023-05-10T06:43:16;13.50;99.90
3566;DHT22;1797;51.844;7.684;2023-05-10T06:45:42;13.60;99.90
3566;DHT22;1797;51.844;7.684;2023-05-10T06:48:07;13.60;99.90
3566;DHT22;1797;51.844;7.684;2023-05-10T06:50:33;13.70;99.90
3566;DHT22;1797;51.844;7.684;2023-05-10T06:53:00;13.70;99.90
3566;DHT22;1797;51.844;7.684;2023-05-10T06:55:27;13.70;99.90
3566;DHT22;1797;51.844;7.684;2023-05-10T06:57:52;13.90;99.90
3566;DHT22;1797;51.844;7.684;2023-05-10T07:00:18;13.90;99.90
3566;DHT22;1797;51.844;7.684;2023-05-10T07:02:44;14.00;99.90
3566;DHT22;1797;51.844;7.684;2023-05-10T07:05:10;14.00;99.90
3566;DHT22;1797;51.844;7.684;2023-05-10T07:07:36;14.10;99.90
3566;DHT22;1797;51.844;7.684;2023-05-10T07:10:02;14.10;99.90
3566;DHT22;1797;51.844;7.684;2023-05-10T07:12:27;14.10;99.90
3566;DHT22;1797;51.844;7.684;2023-05-10T07:14:53;14.10;99.90
3566;DHT22;1797;51.844;7.684;2023-05-10T07:17:19;14.10;99.90
3566;DHT22;1797;51.844;7.684;2023-05-10T07:19:44;14.20;99.90
3566;DHT22;1797;51.844;7.684;2023-05-10T07:22:10;14.20;99.90
3566;DHT22;1797;51.844;7.684;2023-05-10T07:24:35;14.30;99.90
3566;DHT22;1797;51.844;7.684;2023-05-10T07:27:01;14.30;99.90
3566;DHT22;1797;51.844;7.684;2023-05-10T07:29:27;14.30;99.90
3566;DHT22;1797;51.844;7.684;2023-05-10T07:31:54;14.40;99.90
3566;DHT22;1797;51.844;7.684;2023-05-10T07:34:19;14.40;99.90
3566;DHT22;1797;51.844;7.684;2023-05-10T07:36:45;14.50;99.90
3566;DHT22;1797;51.844;7.684;2023-05-10T07:39:10;14.40;99.90
3566;DHT22;1797;51.844;7.684;2023-05-10T07:41:36;14.50;99.90
3566;DHT22;1797;51.844;7.684;2023-05-10T07:44:03;14.60;99.90
3566;DHT22;1797;51.844;7.684;2023-05-10T07:46:29;14.80;99.90
3566;DHT22;1797;51.844;7.684;2023-05-10T07:48:54;15.20;99.90
3566;DHT22;1797;51.844;7.684;2023-05-10T07:51:20;15.30;99.90
3566;DHT22;1797;51.844;7.684;2023-05-10T07:53:46;15.40;99.90
3566;DHT22;1797;51.844;7.684;2023-05-10T07:56:29;15.70;99.90
3566;DHT22;1797;51.844;7.684;2023-05-10T07:58:57;16.20;99.90
3566;DHT22;1797;51.844;7.684;2023-05-10T08:01:23;16.30;99.90
3566;DHT22;1797;51.844;7.684;2023-05-10T08:03:49;16.50;99.90
3566;DHT22;1797;51.844;7.684;2023-05-10T08:06:17;16.40;99.90
3566;DHT22;1797;51.844;7.684;2023-05-10T08:08:43;16.40;99.90
3566;DHT22;1797;51.844;7.684;2023-05-10T08:11:08;16.50;73.80
3566;DHT22;1797;51.844;7.684;2023-05-10T08:13:34;16.90;99.90
3566;DHT22;1797;51.844;7.684;2023-05-10T08:16:00;17.30;99.90
3566;DHT22;1797;51.844;7.684;2023-05-10T08:18:26;17.60;1.00
3566;DHT22;1797;51.844;7.684;2023-05-10T08:20:51;17.60;1.00
3566;DHT22;1797;51.844;7.684;2023-05-10T08:23:17;18.00;1.00
3566;DHT22;1797;51.844;7.684;2023-05-10T08:25:43;18.20;99.90
3566;DHT22;1797;51.844;7.684;2023-05-10T08:28:08;18.30;99.90
3566;DHT22;1797;51.844;7.684;2023-05-10T08:30:34;18.40;99.90
3566;DHT22;1797;51.844;7.684;2023-05-10T08:32:59;18.20;43.10
3566;DHT22;1797;51.844;7.684;2023-05-10T08:35:25;18.10;99.90
3566;DHT22;1797;51.844;7.684;2023-05-10T08:37:51;18.00;99.90
3566;DHT22;1797;51.844;7.684;2023-05-10T08:40:19;18.00;1.00
3566;DHT22;1797;51.844;7.684;2023-05-10T08:42:51;17.90;1.00
3566;DHT22;1797;51.844;7.684;2023-05-10T08:45:20;17.70;1.00
3566;DHT22;1797;51.844;7.684;2023-05-10T08:47:50;17.50;99.90
3566;DHT22;1797;51.844;7.684;2023-05-10T08:50:19;17.40;1.00
3566;DHT22;1797;51.844;7.684;2023-05-10T08:52:45;17.60;99.90
3566;DHT22;1797;51.844;7.684;2023-05-10T08:55:14;17.80;1.00
3566;DHT22;1797;51.844;7.684;2023-05-10T08:57:40;17.90;1.00
3566;DHT22;1797;51.844;7.684;2023-05-10T09:00:06;18.40;1.00
3566;DHT22;1797;51.844;7.684;2023-05-10T09:02:34;18.70;99.90
3566;DHT22;1797;51.844;7.684;2023-05-10T09:04:59;18.70;1.00
3566;DHT22;1797;51.844;7.684;2023-05-10T09:07:25;18.70;99.90
3566;DHT22;1797;51.844;7.684;2023-05-10T09:09:52;19.00;99.90
3566;DHT22;1797;51.844;7.684;2023-05-10T09:12:18;18.90;1.00
3566;DHT22;1797;51.844;7.684;2023-05-10T09:14:44;18.50;45.40
3566;DHT22;1797;51.844;7.684;2023-05-10T09:17:11;18.40;99.90
3566;DHT22;1797;51.844;7.684;2023-05-10T09:19:37;18.30;99.90
3566;DHT22;1797;51.844;7.684;2023-05-10T09:22:03;18.20;99.90
3566;DHT22;1797;51.844;7.684;2023-05-10T09:24:29;18.00;1.00
3566;DHT22;1797;51.844;7.684;2023-05-10T09:26:57;17.70;1.00
3566;DHT22;1797;51.844;7.684;2023-05-10T09:29:23;17.70;1.00
3566;DHT22;1797;51.844;7.684;2023-05-10T09:31:52;18.40;1.00
3566;DHT22;1797;51.844;7.684;2023-05-10T09:34:31;19.10;33.50
3566;DHT22;1797;51.844;7.684;2023-05-10T09:36:59;19.50;1.00
3566;DHT22;1797;51.844;7.684;2023-05-10T09:39:38;19.90;1.00
3566;DHT22;1797;51.844;7.684;2023-05-10T09:42:07;20.30;11.00
3566;DHT22;1797;51.844;7.684;2023-05-10T09:44:33;20.20;1.00
3566;DHT22;1797;51.844;7.684;2023-05-10T09:47:00;20.30;99.90
3566;DHT22;1797;51.844;7.684;2023-05-10T09:49:26;20.50;22.60
3566;DHT22;1797;51.844;7.684;2023-05-10T09:52:02;20.40;1.00
3566;DHT22;1797;51.844;7.684;2023-05-10T09:54:28;20.20;1.00
3566;DHT22;1797;51.844;7.684;2023-05-10T09:56:54;19.80;1.00
3566;DHT22;1797;51.844;7.684;2023-05-10T09:59:20;19.60;1.00
3566;DHT22;1797;51.844;7.684;2023-05-10T10:02:01;19.90;1.00
3566;DHT22;1797;51.844;7.684;2023-05-10T10:04:27;20.10;1.00
3566;DHT22;1797;51.844;7.684;2023-05-10T10:07:03;20.50;99.90
3566;DHT22;1797;51.844;7.684;2023-05-10T10:09:29;20.70;99.90
3566;DHT22;1797;51.844;7.684;2023-05-10T10:11:55;20.90;99.90
3566;DHT22;1797;51.844;7.684;2023-05-10T10:14:22;21.30;99.90
3566;DHT22;1797;51.844;7.684;2023-05-10T10:16:50;21.60;17.70
3566;DHT22;1797;51.844;7.684;2023-05-10T10:19:18;21.80;47.50
3566;DHT22;1797;51.844;7.684;2023-05-10T10:21:44;22.00;91.00
3566;DHT22;1797;51.844;7.684;2023-05-10T10:24:09;21.90;99.90
3566;DHT22;1797;51.844;7.684;2023-05-10T10:26:36;21.80;99.90
3566;DHT22;1797;51.844;7.684;2023-05-10T10:29:23;21.70;99.90
3566;DHT22;1797;51.844;7.684;2023-05-10T10:34:46;21.00;99.90
3566;DHT22;1797;51.844;7.684;2023-05-10T10:37:12;20.60;99.90
3566;DHT22;1797;51.844;7.684;2023-05-10T10:39:37;20.60;99.90
3566;DHT22;1797;51.844;7.684;2023-05-10T10:42:04;20.60;99.90
3566;DHT22;1797;51.844;7.684;2023-05-10T10:44:34;20.70;99.90
3566;DHT22;1797;51.844;7.684;2023-05-10T10:49:52;21.40;99.90
3566;DHT22;1797;51.844;7.684;2023-05-10T10:52:32;21.70;99.90
3566;DHT22;1797;51.844;7.684;2023-05-10T10:57:50;21.40;66.40
3566;DHT22;1797;51.844;7.684;2023-05-10T11:00:36;21.30;61.40
3566;DHT22;1797;51.844;7.684;2023-05-10T11:03:15;21.00;99.90
3566;DHT22;1797;51.844;7.684;2023-05-10T11:05:51;20.60;99.90
3566;DHT22;1797;51.844;7.684;2023-05-10T11:11:02;20.00;1.00
3566;DHT22;1797;51.844;7.684;2023-05-10T11:15:55;19.70;1.00
3566;DHT22;1797;51.844;7.684;2023-05-10T11:18:29;19.40;1.00
3566;DHT22;1797;51.844;7.684;2023-05-10T11:20:59;19.30;1.00
3566;DHT22;1797;51.844;7.684;2023-05-10T11:26:13;19.10;1.00
3566;DHT22;1797;51.844;7.684;2023-05-10T11:28:49;18.90;1.00
3566;DHT22;1797;51.844;7.684;2023-05-10T11:31:16;18.50;99.90
3566;DHT22;1797;51.844;7.684;2023-05-10T11:33:45;18.30;99.90
3566;DHT22;1797;51.844;7.684;2023-05-10T11:36:15;18.20;1.00
3566;DHT22;1797;51.844;7.684;2023-05-10T11:38:42;17.90;1.00
3566;DHT22;1797;51.844;7.684;2023-05-10T11:41:11;17.90;99.90
3566;DHT22;1797;51.844;7.684;2023-05-10T11:43:41;17.90;37.80
3566;DHT22;1797;51.844;7.684;2023-05-10T11:46:12;17.80;99.90
3566;DHT22;1797;51.844;7.684;2023-05-10T11:48:41;17.80;1.00
3566;DHT22;1797;51.844;7.684;2023-05-10T11:51:07;18.10;1.00
3566;DHT22;1797;51.844;7.684;2023-05-10T11:53:34;18.70;1.00
3566;DHT22;1797;51.844;7.684;2023-05-10T11:56:05;19.10;99.90
3566;DHT22;1797;51.844;7.684;2023-05-10T11:58:31;19.20;1.00
3566;DHT22;1797;51.844;7.684;2023-05-10T12:01:01;19.10;99.90
3566;DHT22;1797;51.844;7.684;2023-05-10T12:03:28;18.90;99.90
3566;DHT22;1797;51.844;7.684;2023-05-10T12:05:55;18.50;1.00
3566;DHT22;1797;51.844;7.684;2023-05-10T12:08:23;18.30;1.00
3566;DHT22;1797;51.844;7.684;2023-05-10T12:10:49;18.00;1.00
3566;DHT22;1797;51.844;7.684;2023-05-10T12:13:15;17.80;61.50
3566;DHT22;1797;51.844;7.684;2023-05-10T12:15:41;17.70;99.90
3566;DHT22;1797;51.844;7.684;2023-05-10T12:18:14;17.70;1.00
3566;DHT22;1797;51.844;7.684;2023-05-10T12:20:40;17.60;1.00
3566;DHT22;1797;51.844;7.684;2023-05-10T12:23:08;17.50;99.90
3566;DHT22;1797;51.844;7.684;2023-05-10T12:25:37;17.40;1.00
3566;DHT22;1797;51.844;7.684;2023-05-10T12:28:04;17.40;1.00
3566;DHT22;1797;51.844;7.684;2023-05-10T12:30:32;17.40;1.00
3566;DHT22;1797;51.844;7.684;2023-05-10T12:33:01;17.50;99.90
3566;DHT22;1797;51.844;7.684;2023-05-10T12:35:31;17.50;99.90
3566;DHT22;1797;51.844;7.684;2023-05-10T12:37:57;17.60;1.00
3566;DHT22;1797;51.844;7.684;2023-05-10T12:40:23;17.60;99.90
3566;DHT22;1797;51.844;7.684;2023-05-10T12:42:49;17.60;1.00
3566;DHT22;1797;51.844;7.684;2023-05-10T12:45:14;17.60;1.00
3566;DHT22;1797;51.844;7.684;2023-05-10T12:47:40;17.50;1.00
3566;DHT22;1797;51.844;7.684;2023-05-10T12:50:06;17.60;1.00
3566;DHT22;1797;51.844;7.684;2023-05-10T12:52:32;17.60;99.90
3566;DHT22;1797;51.844;7.684;2023-05-10T12:54:58;17.70;99.90
3566;DHT22;1797;51.844;7.684;2023-05-10T12:57:24;18.00;99.90
3566;DHT22;1797;51.844;7.684;2023-05-10T12:59:50;18.20;99.90
3566;DHT22;1797;51.844;7.684;2023-05-10T13:02:15;18.40;99.90
3566;DHT22;1797;51.844;7.684;2023-05-10T13:04:44;18.80;99.90
3566;DHT22;1797;51.844;7.684;2023-05-10T13:07:10;19.40;99.90
3566;DHT22;1797;51.844;7.684;2023-05-10T13:09:36;19.80;34.60
3566;DHT22;1797;51.844;7.684;2023-05-10T13:12:02;20.20;99.90
3566;DHT22;1797;51.844;7.684;2023-05-10T13:14:27;20.40;1.00
3566;DHT22;1797;51.844;7.684;2023-05-10T13:16:53;20.80;1.00
3566;DHT22;1797;51.844;7.684;2023-05-10T13:19:19;21.30;99.90
3566;DHT22;1797;51.844;7.684;2023-05-10T13:21:45;21.80;99.90
3566;DHT22;1797;51.844;7.684;2023-05-10T13:24:11;22.20;99.90
3566;DHT22;1797;51.844;7.684;2023-05-10T13:26:39;22.30;99.90
3566;DHT22;1797;51.844;7.684;2023-05-10T13:29:05;22.20;99.90
3566;DHT22;1797;51.844;7.684;2023-05-10T13:31:30;22.10;99.90
3566;DHT22;1797;51.844;7.684;2023-05-10T13:33:56;22.10;99.90
3566;DHT22;1797;51.844;7.684;2023-05-10T13:36:21;22.30;99.90
3566;DHT22;1797;51.844;7.684;2023-05-10T13:38:48;22.30;61.40
3566;DHT22;1797;51.844;7.684;2023-05-10T13:41:13;22.20;2.00
3566;DHT22;1797;51.844;7.684;2023-05-10T13:43:39;22.10;68.40
3566;DHT22;1797;51.844;7.684;2023-05-10T13:46:05;21.80;1.00
3566;DHT22;1797;51.844;7.684;2023-05-10T13:48:31;21.30;99.60
3566;DHT22;1797;51.844;7.684;2023-05-10T13:50:56;20.90;99.90
3566;DHT22;1797;51.844;7.684;2023-05-10T13:53:22;21.00;99.90
3566;DHT22;1797;51.844;7.684;2023-05-10T13:55:48;21.20;99.90
3566;DHT22;1797;51.844;7.684;2023-05-10T13:58:13;21.20;99.90
3566;DHT22;1797;51.844;7.684;2023-05-10T14:00:39;20.90;99.90
3566;DHT22;1797;51.844;7.684;2023-05-10T14:03:05;20.80;99.90
3566;DHT22;1797;51.844;7.684;2023-05-10T14:05:32;20.20;99.90
3566;DHT22;1797;51.844;7.684;2023-05-10T14:07:58;19.90;99.90
3566;DHT22;1797;51.844;7.684;2023-05-10T14:10:23;19.60;99.90
3566;DHT22;1797;51.844;7.684;2023-05-10T14:12:49;19.60;99.90
3566;DHT22;1797;51.844;7.684;2023-05-10T14:15:15;19.50;99.90
3566;DHT22;1797;51.844;7.684;2023-05-10T14:17:40;19.50;99.90
3566;DHT22;1797;51.844;7.684;2023-05-10T14:20:07;19.50;99.90
3566;DHT22;1797;51.844;7.684;2023-05-10T14:22:33;19.60;99.90
3566;DHT22;1797;51.844;7.684;2023-05-10T14:24:58;19.60;99.90
3566;DHT22;1797;51.844;7.684;2023-05-10T14:27:24;19.50;99.90
3566;DHT22;1797;51.844;7.684;2023-05-10T14:29:49;19.40;99.90
3566;DHT22;1797;51.844;7.684;2023-05-10T14:32:15;19.60;1.00
3566;DHT22;1797;51.844;7.684;2023-05-10T14:34:40;19.90;99.90
3566;DHT22;1797;51.844;7.684;2023-05-10T14:37:06;19.90;99.90
3566;DHT22;1797;51.844;7.684;2023-05-10T14:39:32;20.00;99.90
3566;DHT22;1797;51.844;7.684;2023-05-10T14:41:58;20.20;99.90
3566;DHT22;1797;51.844;7.684;2023-05-10T14:44:24;20.40;99.90
3566;DHT22;1797;51.844;7.684;2023-05-10T14:46:50;20.50;99.90
3566;DHT22;1797;51.844;7.684;2023-05-10T14:49:16;20.20;1.00
3566;DHT22;1797;51.844;7.684;2023-05-10T14:51:43;19.90;99.90
3566;DHT22;1797;51.844;7.684;2023-05-10T14:54:10;19.90;99.90
3566;DHT22;1797;51.844;7.684;2023-05-10T14:56:35;19.70;99.90
3566;DHT22;1797;51.844;7.684;2023-05-10T14:59:02;19.40;1.00
3566;DHT22;1797;51.844;7.684;2023-05-10T15:01:29;19.20;1.00
3566;DHT22;1797;51.844;7.684;2023-05-10T15:03:54;19.00;99.90
3566;DHT22;1797;51.844;7.684;2023-05-10T15:06:25;18.60;1.00
3566;DHT22;1797;51.844;7.684;2023-05-10T15:08:55;18.50;1.00
3566;DHT22;1797;51.844;7.684;2023-05-10T15:11:21;18.30;1.00
3566;DHT22;1797;51.844;7.684;2023-05-10T15:13:46;18.40;1.00
3566;DHT22;1797;51.844;7.684;2023-05-10T15:16:12;18.40;70.20
3566;DHT22;1797;51.844;7.684;2023-05-10T15:18:37;18.30;99.90
3566;DHT22;1797;51.844;7.684;2023-05-10T15:21:03;18.30;1.00
3566;DHT22;1797;51.844;7.684;2023-05-10T15:23:29;18.20;99.90
3566;DHT22;1797;51.844;7.684;2023-05-10T15:25:55;18.10;99.90
3566;DHT22;1797;51.844;7.684;2023-05-10T15:28:21;18.10;99.90
3566;DHT22;1797;51.844;7.684;2023-05-10T15:30:47;18.10;1.00
3566;DHT22;1797;51.844;7.684;2023-05-10T15:33:12;18.20;1.00
3566;DHT22;1797;51.844;7.684;2023-05-10T15:35:38;18.20;99.90
3566;DHT22;1797;51.844;7.684;2023-05-10T15:38:05;18.20;99.90
3566;DHT22;1797;51.844;7.684;2023-05-10T15:40:31;18.20;99.90
3566;DHT22;1797;51.844;7.684;2023-05-10T15:42:56;18.10;1.00
3566;DHT22;1797;51.844;7.684;2023-05-10T15:45:22;18.00;1.00
3566;DHT22;1797;51.844;7.684;2023-05-10T15:47:48;18.00;1.00
3566;DHT22;1797;51.844;7.684;2023-05-10T15:50:14;18.00;1.00
3566;DHT22;1797;51.844;7.684;2023-05-10T15:52:40;17.90;1.00
3566;DHT22;1797;51.844;7.684;2023-05-10T15:55:07;17.80;1.00
3566;DHT22;1797;51.844;7.684;2023-05-10T15:57:40;17.80;1.00
3566;DHT22;1797;51.844;7.684;2023-05-10T16:00:10;17.80;41.30
3566;DHT22;1797;51.844;7.684;2023-05-10T16:02:36;17.80;1.00
3566;DHT22;1797;51.844;7.684;2023-05-10T16:05:03;17.80;1.00
3566;DHT22;1797;51.844;7.684;2023-05-10T16:07:28;17.90;1.00
3566;DHT22;1797;51.844;7.684;2023-05-10T16:09:54;17.90;1.00
3566;DHT22;1797;51.844;7.684;2023-05-10T16:12:20;18.00;99.90
3566;DHT22;1797;51.844;7.684;2023-05-10T16:14:45;18.00;99.90
3566;DHT22;1797;51.844;7.684;2023-05-10T16:17:11;18.00;99.90
3566;DHT22;1797;51.844;7.684;2023-05-10T16:19:37;17.80;99.90
3566;DHT22;1797;51.844;7.684;2023-05-10T16:22:02;17.90;1.00
3566;DHT22;1797;51.844;7.684;2023-05-10T16:24:29;17.70;75.40
3566;DHT22;1797;51.844;7.684;2023-05-10T16:26:54;17.80;1.00
3566;DHT22;1797;51.844;7.684;2023-05-10T16:29:20;17.80;1.00